Weather at Plutonic Airport

Public forecast

Using degrees Celsius for public forecast. Weather courtesy of forecast.io.

Closest aviation weather report (METAR) to Plutonic Airport

Closest report is Geraldton Airport, 326.8 nm (605.3 km) SW.

2024/05/18 21:30 (retrieved 24 minutes ago)

YGEL 182130Z AUTO 05015KT 9999 // NCD 18/03 Q1023 RF000/0000

Closest aviation forecast (TAF) to Plutonic Airport

Closest forecast is Geraldton Airport, 326.8 nm (605.3 km) SW.

2024/05/18 18:00 (retrieved 4 hours ago)

TAF YGEL 181711Z 1818/1912 06012KT CAVOK FM182100 05018G29KT CAVOK FM190400 05014KT CAVOK